Time;durP1;ratioP1;P1;durP2;ratioP2;P2;SDS_P1;SDS_P2;PMS_P1;PMS_P2;Temp;Humidity;BMP_temperature;BMP_pressure;BME280_temperature;BME280_humidity;BME280_pressure;Samples;Min_cycle;Max_cycle;Signal;HPM_P1;HPM_P2
2023/06/04 00:02:01;;;;;;;4.30;3.75;;;;;;;20.10;94.71;98284.03;5071442;28;20203;-62
2023/06/04 00:04:27;;;;;;;3.58;3.38;;;;;;;19.75;94.72;98234.47;5089040;28;20187;-62
2023/06/04 00:06:53;;;;;;;3.78;3.40;;;;;;;20.08;94.08;98291.22;5089602;28;20250;-62
2023/06/04 00:09:18;;;;;;;3.88;3.50;;;;;;;19.75;93.30;98230.03;5093005;28;20207;-62
2023/06/04 00:11:45;;;;;;;3.25;3.03;;;;;;;20.29;93.60;98317.81;5093052;28;20183;-62
2023/06/04 00:14:11;;;;;;;3.25;3.05;;;;;;;20.27;93.11;98320.59;5092924;28;20721;-62
2023/06/04 00:16:36;;;;;;;3.17;2.97;;;;;;;20.02;93.70;98286.63;5092988;28;20179;-62
2023/06/04 00:19:02;;;;;;;3.58;3.28;;;;;;;19.94;93.31;98269.06;5092902;28;20196;-62
2023/06/04 00:21:28;;;;;;;3.72;3.53;;;;;;;19.72;97.23;98242.66;5092815;28;20670;-62
2023/06/04 00:23:54;;;;;;;3.60;3.30;;;;;;;19.92;94.38;98275.47;5092765;28;20196;-62
2023/06/04 00:26:20;;;;;;;5.57;3.92;;;;;;;19.74;96.14;98254.66;5092796;28;20179;-61
2023/06/04 00:28:45;;;;;;;4.32;3.92;;;;;;;19.96;100.00;98318.78;5092647;28;20203;-61
2023/06/04 00:31:12;;;;;;;4.80;4.40;;;;;;;19.33;100.00;98246.94;5092545;28;20615;-61
2023/06/04 00:33:38;;;;;;;7.05;4.68;;;;;;;19.52;100.00;98289.44;5092601;28;20310;-61
2023/06/04 00:36:04;;;;;;;5.78;5.20;;;;;;;19.24;100.00;98255.81;5078572;28;20644;-62
2023/06/04 00:38:30;;;;;;;9.15;5.15;;;;;;;19.42;100.00;98286.13;5074667;28;20208;-62
2023/06/04 00:40:55;;;;;;;6.72;4.53;;;;;;;19.65;100.00;98328.34;5074607;28;20550;-62
2023/06/04 00:43:20;;;;;;;7.38;4.47;;;;;;;19.18;100.00;98249.34;5074259;28;20195;-62
2023/06/04 00:45:46;;;;;;;5.22;4.75;;;;;;;19.51;100.00;98313.22;5074510;28;20234;-62
2023/06/04 00:48:11;;;;;;;5.60;4.30;;;;;;;19.48;100.00;98303.06;5074393;28;20214;-62
2023/06/04 00:50:38;;;;;;;4.70;4.15;;;;;;;19.05;100.00;98243.78;5074477;28;20200;-62
2023/06/04 00:53:05;;;;;;;4.63;4.07;;;;;;;19.62;100.00;98331.28;5074159;28;20234;-62
2023/06/04 00:55:31;;;;;;;4.75;4.35;;;;;;;19.02;100.00;98248.53;5073409;28;20539;-62
2023/06/04 00:57:57;;;;;;;11.60;5.15;;;;;;;19.07;100.00;98239.19;5074382;28;20176;-62
2023/06/04 01:00:23;;;;;;;5.30;4.20;;;;;;;19.56;100.00;98306.50;5074302;28;20169;-62
2023/06/04 01:02:53;;;;;;;4.22;3.92;;;;;;;19.50;100.00;98290.56;5073965;28;20537;-62
2023/06/04 01:05:29;;;;;;;4.38;3.78;;;;;;;19.73;100.00;98330.94;5074203;28;20259;-62
2023/06/04 01:07:55;;;;;;;5.75;4.03;;;;;;;19.23;100.00;98238.44;5074143;28;20204;-62
2023/06/04 01:10:22;;;;;;;4.00;3.70;;;;;;;19.62;100.00;98323.41;5074078;28;20230;-62
2023/06/04 01:12:47;;;;;;;4.28;3.90;;;;;;;19.66;100.00;98327.34;5073791;28;20231;-62
2023/06/04 01:15:13;;;;;;;3.75;3.45;;;;;;;19.66;100.00;98327.34;5074006;28;20204;-62
2023/06/04 01:17:46;;;;;;;4.05;3.58;;;;;;;19.62;100.00;98312.91;5074293;28;20176;-62
2023/06/04 01:20:12;;;;;;;4.22;3.78;;;;;;;19.62;100.00;98331.28;5073255;28;20177;-62
2023/06/04 01:22:48;;;;;;;5.20;3.97;;;;;;;19.32;100.00;98282.03;5073835;28;20233;-62
2023/06/04 01:25:20;;;;;;;4.50;4.10;;;;;;;19.39;100.00;98296.16;5073834;28;20179;-62
2023/06/04 01:27:55;;;;;;;4.15;3.83;;;;;;;19.38;100.00;98278.75;5073758;28;20227;-62
2023/06/04 01:30:28;;;;;;;3.78;3.47;;;;;;;19.47;100.00;98293.53;5073771;28;20245;-62
2023/06/04 01:32:56;;;;;;;3.67;3.38;;;;;;;19.65;100.00;98336.22;5073719;28;20643;-62
2023/06/04 01:35:22;;;;;;;4.85;3.50;;;;;;;19.24;100.00;98261.06;5073625;28;20267;-62
2023/06/04 01:37:48;;;;;;;4.38;3.40;;;;;;;19.52;100.00;98320.13;5073541;28;20180;-62
2023/06/04 01:40:14;;;;;;;4.97;3.70;;;;;;;19.76;100.00;98347.19;5073537;28;20168;-62
2023/06/04 01:42:41;;;;;;;3.97;3.58;;;;;;;19.65;100.00;98325.72;5073438;28;20185;-62
2023/06/04 01:45:07;;;;;;;4.68;4.10;;;;;;;19.31;100.00;98262.03;5073441;28;20180;-62
2023/06/04 01:47:33;;;;;;;4.85;4.00;;;;;;;19.71;100.00;98314.56;5073330;28;20314;-62
2023/06/04 01:49:59;;;;;;;8.05;4.43;;;;;;;19.81;100.00;98329.16;5073261;28;20176;-62
2023/06/04 01:52:24;;;;;;;6.68;4.00;;;;;;;19.68;100.00;98301.72;5073271;28;20172;-61
2023/06/04 01:54:52;;;;;;;4.68;4.07;;;;;;;19.88;100.00;98326.69;5073234;28;20168;-62
2023/06/04 01:57:19;;;;;;;5.18;4.68;;;;;;;19.69;100.00;98295.53;5073140;28;20172;-62
2023/06/04 01:59:44;;;;;;;4.20;3.78;;;;;;;19.81;100.00;98288.97;5073155;28;20226;-62
2023/06/04 02:02:10;;;;;;;4.68;4.28;;;;;;;19.82;100.00;98308.97;5073014;28;20177;-62
2023/06/04 02:04:36;;;;;;;5.25;4.65;;;;;;;19.33;100.00;98279.25;5073003;28;20176;-62
2023/06/04 02:07:02;;;;;;;7.28;4.43;;;;;;;19.53;100.00;98351.44;5072957;28;20172;-62
2023/06/04 02:09:28;;;;;;;6.75;4.55;;;;;;;19.36;100.00;98299.09;5072836;28;20690;-62
2023/06/04 02:11:53;;;;;;;7.20;4.40;;;;;;;19.15;100.00;98320.53;5072643;28;20233;-62
2023/06/04 02:14:22;;;;;;;3.83;3.58;;;;;;;18.84;100.00;98279.28;5072854;28;20176;-62
2023/06/04 02:16:49;;;;;;;6.97;4.45;;;;;;;19.15;100.00;98338.06;5072477;28;20172;-62
2023/06/04 02:19:15;;;;;;;5.60;4.50;;;;;;;19.13;100.00;98361.00;5072678;28;20172;-62
2023/06/04 02:21:40;;;;;;;5.00;4.47;;;;;;;19.14;100.00;98349.53;5072708;28;20666;-62
2023/06/04 02:24:05;;;;;;;4.95;4.47;;;;;;;18.97;100.00;98335.56;5072676;28;20263;-62
2023/06/04 02:26:32;;;;;;;5.68;5.07;;;;;;;19.20;100.00;98354.97;5072617;28;20176;-62
2023/06/04 02:28:57;;;;;;;10.10;5.50;;;;;;;19.07;100.00;98327.56;5072432;28;20204;-62
2023/06/04 02:31:23;;;;;;;6.65;4.53;;;;;;;19.18;100.00;98329.88;5071571;28;20176;-62
2023/06/04 02:33:48;;;;;;;5.75;4.95;;;;;;;19.50;100.00;98362.28;5072464;28;20278;-62
2023/06/04 02:36:13;;;;;;;5.75;5.20;;;;;;;19.70;100.00;98381.19;5072437;28;20265;-62
2023/06/04 02:38:39;;;;;;;5.97;5.38;;;;;;;19.49;100.00;98346.69;5072110;28;20259;-62
2023/06/04 02:41:05;;;;;;;6.95;5.53;;;;;;;19.00;100.00;98297.69;5072327;28;20325;-62
2023/06/04 02:43:30;;;;;;;6.50;5.90;;;;;;;19.30;100.00;98386.34;5072270;28;20199;-62
2023/06/04 02:45:55;;;;;;;6.57;4.60;;;;;;;19.16;100.00;98373.78;5072327;28;20263;-62
2023/06/04 02:48:21;;;;;;;5.78;5.28;;;;;;;19.15;100.00;98374.78;5072197;28;20196;-62
2023/06/04 02:50:46;;;;;;;5.47;4.75;;;;;;;19.11;100.00;98368.22;5072249;28;20223;-62
2023/06/04 02:53:12;;;;;;;4.95;4.45;;;;;;;18.69;100.00;98317.56;5072213;28;20180;-62
2023/06/04 02:55:37;;;;;;;8.75;4.90;;;;;;;18.55;100.00;98341.75;5072466;28;20172;-62
2023/06/04 02:58:02;;;;;;;5.55;4.65;;;;;;;18.33;100.00;98318.72;5072160;28;20181;-62
2023/06/04 03:00:28;;;;;;;5.35;4.85;;;;;;;18.73;100.00;98368.72;5072145;28;20176;-62
2023/06/04 03:03:00;;;;;;;5.53;5.03;;;;;;;18.62;100.00;98387.31;5072097;28;20169;-62
2023/06/04 03:05:26;;;;;;;7.07;4.65;;;;;;;18.40;100.00;98351.16;5069472;28;20219;-62
2023/06/04 03:07:52;;;;;;;7.07;5.03;;;;;;;18.73;100.00;98394.94;5069433;28;20394;-61
2023/06/04 03:10:17;;;;;;;5.80;4.80;;;;;;;18.59;100.00;98371.94;5069552;28;20216;-61
2023/06/04 03:12:43;;;;;;;9.38;5.40;;;;;;;18.45;100.00;98338.41;5069402;28;20222;-62
2023/06/04 03:15:09;;;;;;;5.97;5.38;;;;;;;19.01;100.00;98420.78;5069553;28;20184;-62
2023/06/04 03:17:35;;;;;;;5.70;4.97;;;;;;;18.88;100.00;98401.25;5069416;28;20188;-61
2023/06/04 03:20:01;;;;;;;5.68;5.15;;;;;;;18.48;100.00;98343.38;5069513;28;20262;-62
2023/06/04 03:22:28;;;;;;;6.45;5.10;;;;;;;18.54;100.00;98342.75;5069405;28;20215;-62
2023/06/04 03:24:53;;;;;;;9.60;5.13;;;;;;;18.81;100.00;98381.84;5069417;28;20202;-62
2023/06/04 03:27:19;;;;;;;5.35;4.85;;;;;;;18.49;100.00;98348.44;5069372;28;20730;-62
2023/06/04 03:29:45;;;;;;;5.63;5.13;;;;;;;18.48;100.00;98332.88;5069415;28;20189;-62
2023/06/04 03:32:12;;;;;;;5.72;4.70;;;;;;;18.85;100.00;98415.47;5069328;28;20267;-62
2023/06/04 03:34:38;;;;;;;7.18;4.90;;;;;;;18.76;100.00;98400.69;5069377;28;20184;-62
2023/06/04 03:37:03;;;;;;;5.40;5.00;;;;;;;18.57;100.00;98368.63;5069314;28;20257;-62
2023/06/04 03:39:29;;;;;;;5.38;4.88;;;;;;;18.64;100.00;98395.84;5069310;28;20246;-62
2023/06/04 03:41:55;;;;;;;8.45;5.20;;;;;;;18.39;100.00;98362.63;5069947;28;20200;-62
2023/06/04 03:44:22;;;;;;;6.85;5.30;;;;;;;18.26;100.00;98352.53;5075744;28;20219;-62
2023/06/04 03:46:47;;;;;;;7.07;5.57;;;;;;;18.29;100.00;98375.78;5075718;28;20183;-62
2023/06/04 03:49:13;;;;;;;6.18;5.57;;;;;;;18.91;100.00;98429.75;5075602;28;20609;-62
2023/06/04 03:51:39;;;;;;;8.60;5.18;;;;;;;18.94;100.00;98416.34;5075596;28;20184;-62
2023/06/04 03:54:05;;;;;;;6.43;5.32;;;;;;;18.71;100.00;98354.94;5075541;28;20545;-62
2023/06/04 03:56:31;;;;;;;5.78;5.20;;;;;;;18.80;100.00;98351.38;5075521;28;20263;-62
2023/06/04 03:58:57;;;;;;;8.73;5.40;;;;;;;19.11;100.00;98402.31;5075433;28;20614;-62
2023/06/04 04:01:25;;;;;;;6.05;4.82;;;;;;;18.95;100.00;98368.16;5075094;28;20671;-61
2023/06/04 04:03:52;;;;;;;7.95;5.88;;;;;;;19.32;100.00;98439.47;5075368;28;20211;-62
2023/06/04 04:06:18;;;;;;;7.05;5.32;;;;;;;18.99;100.00;98372.09;5074834;28;20184;-62
2023/06/04 04:08:43;;;;;;;6.97;5.07;;;;;;;19.55;100.00;98457.13;5075135;28;20739;-62
2023/06/04 04:11:12;;;;;;;7.93;5.15;;;;;;;19.65;100.00;98449.91;5074661;28;20180;-62
